Etusivu
METAR-TAF:

METAR-TAF

Lentoasemat :

Västeråsin lentoasema

Västerås, Ruotsi

Leveyspiiri: 59-35N, Pituuspiiri: 016-38E, korkeus merenpinnasta: 6 m

Tämänhetkinen sää

Tämä raportti tehtiin 34 minuuttia sitten, kello 19.20 UTC
Tuuli 9 kn idästä
Lämpötila 14°C
Kosteus 31%
Ilmanpaine 1019 hPa
Näkyvyys 10 km tai enemmän

METAR: ESOW 241920Z AUTO 08009KT 9999 NCD 14/M03 Q1019

Aika: 21:54 (19:54 UTC)

Sääennuste

Tämä raportti tehtiin 5 tuntia ja 24 minuuttia sitten, kello 14.30 UTC
Ennuste voimassa 24. päivästä klo 15 UTC - 24. päivään klo 17 UTC
Tuuli 15 kn kaakosta puuskistuen 25 kn:hen
Näkyvyys 10 km tai enemmän
ei pilviä alle 1500 m:ssä eikä cumulonimbus-pilviä
Tulossa
24. päivästä klo 15 UTC - 24. päivään klo 17 UTC
Tuuli 10 kn idästä

TAF: ESOW 241430Z 2415/2417 13015G25KT CAVOK BECMG 2415/2417 10010KT

Säähavainnot ja -ennusteet yli 4000 lentoasemalta (METAR- ja TAF-raportit).

Käytössä olevat sääasemat on merkitty karttaan keltaisilla ja punaisilla pisteillä.

Aseta hiiri pisteen päälle nähdäksesi sääaseman nimen.

Klikkaa sitten nähdäksesi säähavainnot ja -ennusteet.

Kartan vaihtaminen: klikkaa mustalla rastilla varustettuja vihreitä pisteitä, niin voit zoomata sisään; viivalla varustettua vihreää pistettä, niin voit zoomata ulos tai vihreitä nuolia, niin pääset viereisille kartoille.


METAR-TAF: